createdAt,value
2022-08-06T00:01:30.118Z,28.28
2022-08-06T00:06:32.964Z,28.19
2022-08-06T00:11:35.988Z,28.24
2022-08-06T00:16:41.240Z,28.25
2022-08-06T00:21:44.731Z,28.18
2022-08-06T00:26:51.664Z,28.22
2022-08-06T00:32:12.160Z,28.14
2022-08-06T00:37:18.809Z,28.17
2022-08-06T00:42:21.459Z,28.14
2022-08-06T00:47:41.334Z,28.20
2022-08-06T00:52:47.907Z,28.15
2022-08-06T00:57:50.218Z,28.13
2022-08-06T01:02:53.254Z,28.11
2022-08-06T01:07:55.919Z,28.12
2022-08-06T01:13:00.133Z,28.11
2022-08-06T01:18:19.757Z,28.11
2022-08-06T01:23:28.288Z,28.11
2022-08-06T01:28:51.899Z,28.07
2022-08-06T01:34:00.483Z,28.14
2022-08-06T01:39:02.775Z,28.02
2022-08-06T01:44:16.360Z,28.06
2022-08-06T01:49:27.548Z,28.08
2022-08-06T01:54:52.366Z,28.09
2022-08-06T01:59:57.013Z,28.10
2022-08-06T02:05:09.394Z,28.10
2022-08-06T02:10:14.467Z,28.08
2022-08-06T02:15:22.086Z,28.02
2022-08-06T02:20:36.670Z,28.02
2022-08-06T02:25:41.874Z,28.04
2022-08-06T02:30:49.145Z,28.03
2022-08-06T02:36:02.686Z,28.04
2022-08-06T02:41:21.888Z,28.00
2022-08-06T02:46:28.945Z,28.00
2022-08-06T02:52:10.868Z,27.97
2022-08-06T02:57:05.626Z,27.96
2022-08-06T03:02:12.042Z,27.95
2022-08-06T03:07:27.434Z,27.95
2022-08-06T03:12:34.833Z,27.93
2022-08-06T03:17:39.152Z,27.92
2022-08-06T03:22:44.716Z,27.88
2022-08-06T03:27:47.649Z,27.90
2022-08-06T03:32:52.549Z,27.91
2022-08-06T03:37:59.888Z,27.94
2022-08-06T03:43:07.515Z,27.89
2022-08-06T03:48:14.663Z,27.88
2022-08-06T03:53:42.407Z,27.89
2022-08-06T03:58:51.146Z,27.91
2022-08-06T04:03:56.194Z,27.81
2022-08-06T04:09:01.722Z,27.80
2022-08-06T04:14:07.327Z,27.84
2022-08-06T04:19:14.098Z,27.85
2022-08-06T04:24:17.768Z,27.78
2022-08-06T04:29:21.791Z,27.80
2022-08-06T04:34:28.731Z,27.81
2022-08-06T04:39:37.093Z,27.80
2022-08-06T04:44:44.412Z,27.77
2022-08-06T04:50:01.550Z,27.75
2022-08-06T04:55:05.578Z,27.77
2022-08-06T05:00:33.921Z,27.73
2022-08-06T05:06:01.838Z,27.73
2022-08-06T05:11:24.953Z,27.70
2022-08-06T05:16:28.827Z,27.69
2022-08-06T05:22:05.370Z,27.74
2022-08-06T05:26:57.064Z,27.76
2022-08-06T05:32:02.653Z,27.76
2022-08-06T05:37:05.036Z,27.75
2022-08-06T05:42:11.810Z,27.81
2022-08-06T05:47:19.975Z,27.80
2022-08-06T05:52:29.877Z,27.82
2022-08-06T05:57:53.805Z,27.90
2022-08-06T06:02:59.646Z,27.98
2022-08-06T06:08:08.037Z,28.05
2022-08-06T06:13:24.918Z,27.97
2022-08-06T06:18:46.382Z,27.95
2022-08-06T06:24:26.961Z,28.09
2022-08-06T06:30:06.850Z,28.05
2022-08-06T06:35:20.955Z,28.08
2022-08-06T06:40:36.367Z,28.01
2022-08-06T06:46:20.591Z,28.04
2022-08-06T06:51:56.873Z,27.89
2022-08-06T06:57:02.664Z,27.83
2022-08-06T07:02:11.772Z,27.77
2022-08-06T07:07:23.013Z,27.80
2022-08-06T07:12:31.631Z,27.70
2022-08-06T07:17:44.837Z,27.84
2022-08-06T07:24:03.977Z,27.69
2022-08-06T07:28:29.563Z,27.80
2022-08-06T07:34:00.602Z,27.73
2022-08-06T07:39:02.997Z,27.72
2022-08-06T07:44:13.352Z,27.67
2022-08-06T07:49:17.366Z,27.74
2022-08-06T07:54:33.633Z,27.75
2022-08-06T07:59:36.675Z,27.68
2022-08-06T08:05:06.358Z,27.62
2022-08-06T08:10:08.934Z,27.51
2022-08-06T08:15:17.810Z,27.59
2022-08-06T08:20:21.251Z,27.72
2022-08-06T08:25:42.256Z,27.71
2022-08-06T08:30:46.869Z,27.77
2022-08-06T08:36:00.769Z,27.78
2022-08-06T08:41:09.937Z,27.67
2022-08-06T08:46:16.531Z,27.73
2022-08-06T08:51:19.117Z,27.87
2022-08-06T08:57:08.617Z,27.67
2022-08-06T09:01:53.761Z,27.78
2022-08-06T09:06:59.481Z,27.32
2022-08-06T09:12:19.557Z,27.77
2022-08-06T09:18:11.772Z,27.93
2022-08-06T09:22:52.397Z,28.05
2022-08-06T09:27:54.293Z,28.03
2022-08-06T09:32:58.053Z,28.02
2022-08-06T09:38:09.449Z,28.04
2022-08-06T09:43:34.209Z,27.97
2022-08-06T09:49:57.543Z,27.99
2022-08-06T09:54:25.346Z,27.61
2022-08-06T09:59:33.342Z,27.78
2022-08-06T10:04:36.386Z,27.67
2022-08-06T10:09:53.257Z,27.35
2022-08-06T10:14:56.012Z,27.24
2022-08-06T10:20:18.395Z,27.64
2022-08-06T10:25:24.806Z,27.76
2022-08-06T10:30:35.979Z,27.84
2022-08-06T10:35:45.653Z,27.88
2022-08-06T10:40:58.785Z,28.00
2022-08-06T10:46:11.618Z,27.98
2022-08-06T10:51:15.137Z,28.01
2022-08-06T10:56:21.790Z,27.86
2022-08-06T11:01:47.140Z,27.63
2022-08-06T11:08:08.388Z,27.36
2022-08-06T11:13:17.515Z,27.21
2022-08-06T11:18:27.933Z,27.10
2022-08-06T11:23:58.023Z,26.66
2022-08-06T11:28:54.420Z,26.58
2022-08-06T11:34:00.954Z,26.68
2022-08-06T11:39:16.930Z,27.01
2022-08-06T11:44:24.717Z,26.97
2022-08-06T11:49:47.539Z,26.80
2022-08-06T11:54:49.624Z,26.56
2022-08-06T11:59:57.377Z,26.89
2022-08-06T12:04:59.425Z,26.96
2022-08-06T12:10:04.123Z,26.95
2022-08-06T12:15:20.063Z,27.55
2022-08-06T12:20:45.989Z,27.23
2022-08-06T12:25:50.000Z,27.64
2022-08-06T12:30:55.839Z,27.83
2022-08-06T12:36:00.697Z,27.15
2022-08-06T12:41:09.843Z,27.50
2022-08-06T12:46:19.621Z,27.29
2022-08-06T12:51:27.016Z,27.28
2022-08-06T12:56:33.332Z,26.91
2022-08-06T13:02:11.029Z,27.08
2022-08-06T13:07:02.907Z,26.47
2022-08-06T13:12:28.916Z,27.30
2022-08-06T13:17:55.707Z,27.42
2022-08-06T13:22:59.680Z,27.35
2022-08-06T13:28:22.137Z,27.23
2022-08-06T13:33:26.025Z,27.01
2022-08-06T13:38:41.950Z,27.47
2022-08-06T13:43:54.382Z,27.70
2022-08-06T13:49:01.399Z,27.78
2022-08-06T13:54:16.547Z,27.26
2022-08-06T13:59:40.534Z,26.83
2022-08-06T14:04:50.090Z,26.49
2022-08-06T14:10:08.491Z,26.67
2022-08-06T14:15:12.915Z,26.68
2022-08-06T14:20:23.865Z,26.86
2022-08-06T14:25:28.677Z,26.45
2022-08-06T14:30:51.509Z,26.30
2022-08-06T14:35:54.466Z,26.36
2022-08-06T14:41:52.129Z,26.29
2022-08-06T14:46:43.855Z,26.48
2022-08-06T14:52:19.116Z,26.26
2022-08-06T14:57:14.582Z,26.03
2022-08-06T15:02:18.061Z,26.60
2022-08-06T15:07:25.272Z,26.55
2022-08-06T15:12:49.973Z,26.82
2022-08-06T15:18:11.165Z,26.66
2022-08-06T15:23:20.018Z,26.10
2022-08-06T15:28:21.884Z,26.08
2022-08-06T15:33:27.748Z,26.24
2022-08-06T15:38:38.881Z,26.50
2022-08-06T15:43:45.210Z,26.98
2022-08-06T15:48:53.749Z,26.71
2022-08-06T15:53:57.935Z,26.69
2022-08-06T15:59:00.479Z,26.81
2022-08-06T16:04:02.332Z,26.43
2022-08-06T16:09:04.745Z,26.47
2022-08-06T16:14:11.969Z,26.58
2022-08-06T16:19:21.103Z,26.65
2022-08-06T16:24:23.724Z,26.58
2022-08-06T16:29:28.232Z,26.68
2022-08-06T16:34:36.789Z,26.41
2022-08-06T16:39:39.087Z,27.01
2022-08-06T16:45:02.431Z,26.93
2022-08-06T16:50:18.772Z,26.76
2022-08-06T16:55:27.781Z,27.04
2022-08-06T17:00:59.625Z,26.74
2022-08-06T17:06:00.295Z,26.06
2022-08-06T17:11:03.383Z,26.51
2022-08-06T17:16:29.521Z,26.97
2022-08-06T17:26:54.189Z,26.58
2022-08-06T17:31:59.184Z,26.52
2022-08-06T17:37:03.624Z,26.46
2022-08-06T17:42:26.398Z,26.43
2022-08-06T17:47:51.945Z,26.36
2022-08-06T17:52:50.111Z,26.62
2022-08-06T17:58:03.372Z,26.40
2022-08-06T18:03:24.099Z,26.49
2022-08-06T18:08:36.274Z,26.30
2022-08-06T18:13:53.142Z,26.63
2022-08-06T18:18:57.295Z,27.23
2022-08-06T18:24:00.764Z,27.41
2022-08-06T18:29:05.977Z,27.49
2022-08-06T18:34:16.147Z,27.51
2022-08-06T18:39:23.377Z,27.55
2022-08-06T18:44:43.394Z,27.61
2022-08-06T18:49:53.347Z,27.63
2022-08-06T18:55:00.401Z,27.62
2022-08-06T19:00:02.119Z,27.67
2022-08-06T19:05:04.843Z,27.65
2022-08-06T19:10:14.921Z,27.69
2022-08-06T19:15:19.851Z,27.70
2022-08-06T19:20:39.267Z,27.66
2022-08-06T19:25:52.026Z,27.67
2022-08-06T19:31:06.250Z,27.68
2022-08-06T19:36:27.042Z,27.67
2022-08-06T19:42:00.122Z,27.72
2022-08-06T19:46:56.635Z,27.68
2022-08-06T19:52:02.038Z,27.60
2022-08-06T19:57:09.220Z,27.55
2022-08-06T20:02:15.716Z,27.49
2022-08-06T20:07:33.971Z,27.53
2022-08-06T20:12:38.530Z,27.44
2022-08-06T20:17:46.093Z,27.46
2022-08-06T20:22:52.157Z,27.37
2022-08-06T20:29:08.611Z,27.34
2022-08-06T20:33:26.198Z,27.45
2022-08-06T20:38:33.458Z,27.38
2022-08-06T20:44:04.498Z,27.40
2022-08-06T20:49:12.838Z,27.43
2022-08-06T20:54:17.108Z,27.62
2022-08-06T20:59:19.425Z,27.64
2022-08-06T21:05:16.122Z,27.67
2022-08-06T21:09:45.358Z,27.57
2022-08-06T21:14:50.481Z,27.49
2022-08-06T21:20:10.618Z,27.45
2022-08-06T21:25:14.889Z,27.49
2022-08-06T21:30:29.526Z,27.50
2022-08-06T21:35:33.970Z,27.49
2022-08-06T21:40:36.354Z,27.49
2022-08-06T21:45:50.255Z,27.55
2022-08-06T21:51:00.937Z,27.52
2022-08-06T21:56:36.510Z,27.49
2022-08-06T22:02:10.156Z,27.52
2022-08-06T22:06:53.199Z,27.57
2022-08-06T22:12:38.574Z,27.45
2022-08-06T22:17:59.464Z,27.49
2022-08-06T22:22:40.779Z,27.48
2022-08-06T22:27:49.428Z,27.49
2022-08-06T22:32:56.506Z,27.54
2022-08-06T22:38:19.640Z,27.51
2022-08-06T22:43:29.567Z,27.56
2022-08-06T22:48:39.088Z,27.52
2022-08-06T22:54:28.727Z,27.49
2022-08-06T22:59:18.976Z,27.52
2022-08-06T23:04:26.741Z,27.53
2022-08-06T23:09:28.965Z,27.46
2022-08-06T23:14:33.541Z,27.45
2022-08-06T23:19:57.215Z,27.51
2022-08-06T23:25:58.577Z,27.51
2022-08-06T23:30:19.995Z,27.57
2022-08-06T23:35:35.465Z,27.60
2022-08-06T23:40:39.378Z,27.51
2022-08-06T23:45:41.946Z,27.53
2022-08-06T23:50:52.594Z,27.53
2022-08-06T23:55:59.267Z,27.48
